Time;durP1;ratioP1;P1;durP2;ratioP2;P2;SDS_P1;SDS_P2;PMS_P1;PMS_P2;Temp;Humidity;BMP_temperature;BMP_pressure;BME280_temperature;BME280_humidity;BME280_pressure;Samples;Min_cycle;Max_cycle;Signal;HPM_P1;HPM_P2
2021/06/06 00:00:01;;;;;;;33.67;24.20;;;;;;;;;;5056290;28;20458;-59
2021/06/06 00:02:30;;;;;;;30.00;22.77;;;;;;;;;;5055421;28;20454;-57
2021/06/06 00:04:56;;;;;;;39.20;25.00;;;;;;;;;;5065529;28;20456;-57
2021/06/06 00:07:23;;;;;;;31.10;23.17;;;;;;;;;;5071925;28;20469;-56
2021/06/06 00:09:50;;;;;;;31.80;22.67;;;;;;;;;;5055168;28;20469;-59
2021/06/06 00:12:17;;;;;;;31.83;23.73;;;;;;;;;;5055461;28;20466;-57
2021/06/06 00:14:44;;;;;;;35.10;23.77;;;;;;;;;;5055689;28;20453;-58
2021/06/06 00:17:18;;;;;;;32.27;23.80;;;;;;;;;;5055275;28;20458;-58
2021/06/06 00:19:47;;;;;;;31.60;23.30;;;;;;;;;;5054829;28;20487;-55
2021/06/06 00:22:14;;;;;;;31.33;22.53;;;;;;;;;;5055284;28;20478;-54
2021/06/06 00:24:41;;;;;;;30.10;22.83;;;;;;;;;;5055412;28;20450;-54
2021/06/06 00:27:11;;;;;;;32.13;21.77;;;;;;;;;;5056485;28;20529;-54
2021/06/06 00:29:38;;;;;;;36.60;24.93;;;;;;;;;;5061677;28;20454;-55
2021/06/06 00:32:05;;;;;;;33.47;24.53;;;;;;;;;;5075868;28;20444;-55
2021/06/06 00:34:32;;;;;;;32.20;24.23;;;;;;;;;;5079580;28;20473;-58
2021/06/06 00:37:01;;;;;;;31.40;23.30;;;;;;;;;;5080517;28;20453;-60
2021/06/06 00:39:27;;;;;;;33.70;23.27;;;;;;;;;;5059341;28;20524;-56
2021/06/06 00:41:57;;;;;;;33.23;23.83;;;;;;;;;;5059247;28;20456;-56
2021/06/06 00:44:24;;;;;;;35.90;23.10;;;;;;;;;;5075061;28;20500;-55
2021/06/06 00:46:52;;;;;;;30.47;23.23;;;;;;;;;;5071250;28;20445;-57
2021/06/06 00:49:19;;;;;;;31.53;23.47;;;;;;;;;;5059204;28;20449;-57
2021/06/06 00:51:49;;;;;;;32.13;22.30;;;;;;;;;;5063464;28;20446;-57
2021/06/06 00:54:22;;;;;;;31.27;22.07;;;;;;;;;;5058673;28;20457;-58
2021/06/06 00:56:51;;;;;;;33.50;23.07;;;;;;;;;;5068108;28;20437;-57
2021/06/06 00:59:19;;;;;;;28.43;20.60;;;;;;;;;;5058770;28;20465;-55
2021/06/06 01:01:47;;;;;;;32.17;22.63;;;;;;;;;;5058797;28;20491;-53
2021/06/06 01:04:13;;;;;;;29.90;22.13;;;;;;;;;;5058690;28;20449;-58
2021/06/06 01:06:43;;;;;;;29.50;23.37;;;;;;;;;;5061512;28;20469;-60
2021/06/06 01:09:10;;;;;;;31.90;22.73;;;;;;;;;;5078962;28;20457;-57
2021/06/06 01:11:40;;;;;;;31.70;21.50;;;;;;;;;;5071766;28;20450;-57
2021/06/06 01:14:09;;;;;;;33.93;22.90;;;;;;;;;;5063600;28;20429;-58
2021/06/06 01:16:39;;;;;;;35.60;24.17;;;;;;;;;;5062229;28;20477;-52
2021/06/06 01:19:10;;;;;;;37.67;24.30;;;;;;;;;;5058940;28;20502;-54
2021/06/06 01:21:45;;;;;;;33.00;24.00;;;;;;;;;;5064633;28;20452;-58
2021/06/06 01:24:26;;;;;;;34.53;23.50;;;;;;;;;;5073161;28;20547;-60
2021/06/06 01:27:00;;;;;;;34.23;23.50;;;;;;;;;;5078353;28;20437;-59
2021/06/06 01:29:29;;;;;;;32.37;23.43;;;;;;;;;;5058588;28;20472;-58
2021/06/06 01:32:00;;;;;;;36.00;23.17;;;;;;;;;;5054943;28;20498;-57
2021/06/06 01:34:28;;;;;;;34.40;23.73;;;;;;;;;;5057862;28;20473;-58
2021/06/06 01:37:00;;;;;;;36.93;24.57;;;;;;;;;;5058069;28;20465;-53
2021/06/06 01:39:30;;;;;;;30.80;22.70;;;;;;;;;;5058503;28;20486;-58
2021/06/06 01:41:59;;;;;;;29.30;22.43;;;;;;;;;;5061640;28;20434;-54
2021/06/06 01:44:28;;;;;;;33.53;23.20;;;;;;;;;;5058092;28;20473;-57
2021/06/06 01:46:57;;;;;;;32.33;20.47;;;;;;;;;;5064231;28;20512;-55
2021/06/06 01:49:24;;;;;;;32.40;21.40;;;;;;;;;;5074487;28;20469;-56
2021/06/06 01:51:52;;;;;;;25.53;19.43;;;;;;;;;;5070360;28;20477;-53
2021/06/06 01:54:21;;;;;;;26.40;18.87;;;;;;;;;;5063795;28;20520;-52
2021/06/06 01:56:51;;;;;;;28.30;17.67;;;;;;;;;;5063087;28;20502;-59
2021/06/06 01:59:31;;;;;;;27.40;19.10;;;;;;;;;;5058538;28;20610;-57
2021/06/06 02:01:58;;;;;;;26.60;17.53;;;;;;;;;;5058752;28;20450;-55
2021/06/06 02:04:25;;;;;;;29.10;20.50;;;;;;;;;;5058332;28;20458;-54
2021/06/06 02:06:59;;;;;;;23.70;18.67;;;;;;;;;;5057983;28;20453;-54
2021/06/06 02:09:29;;;;;;;22.60;16.37;;;;;;;;;;5069851;28;20556;-56
2021/06/06 02:11:58;;;;;;;25.97;18.77;;;;;;;;;;5077856;28;20470;-60
2021/06/06 02:14:37;;;;;;;24.73;18.50;;;;;;;;;;5078005;28;20471;-57
2021/06/06 02:17:07;;;;;;;23.07;17.43;;;;;;;;;;5077634;28;20512;-59
2021/06/06 02:19:38;;;;;;;21.53;16.37;;;;;;;;;;5077672;28;20540;-54
2021/06/06 02:22:07;;;;;;;20.53;15.53;;;;;;;;;;5077375;28;20489;-59
2021/06/06 02:24:35;;;;;;;21.50;16.00;;;;;;;;;;5077627;28;20453;-57
2021/06/06 02:27:07;;;;;;;23.47;17.70;;;;;;;;;;5077306;28;20536;-56
2021/06/06 02:29:37;;;;;;;23.90;15.67;;;;;;;;;;5077668;28;20471;-57
2021/06/06 02:32:14;;;;;;;25.60;17.73;;;;;;;;;;5077347;28;20421;-59
2021/06/06 02:34:43;;;;;;;25.93;18.60;;;;;;;;;;5077509;28;20500;-55
2021/06/06 02:37:16;;;;;;;24.10;16.57;;;;;;;;;;5077702;28;20477;-55
2021/06/06 02:39:58;;;;;;;19.57;16.13;;;;;;;;;;5077297;28;20499;-57
2021/06/06 02:42:30;;;;;;;24.23;17.60;;;;;;;;;;5077170;28;20528;-60
2021/06/06 02:44:58;;;;;;;24.30;17.37;;;;;;;;;;5077292;28;20464;-52
2021/06/06 02:47:28;;;;;;;22.60;17.77;;;;;;;;;;5076961;28;20452;-58
2021/06/06 02:49:57;;;;;;;22.83;17.50;;;;;;;;;;5077220;28;20488;-60
2021/06/06 02:52:38;;;;;;;28.90;17.97;;;;;;;;;;5076931;28;20449;-55
2021/06/06 02:55:06;;;;;;;24.23;17.50;;;;;;;;;;5075161;28;20495;-56
2021/06/06 02:57:36;;;;;;;24.70;16.50;;;;;;;;;;5075484;28;20471;-59
2021/06/06 03:00:08;;;;;;;24.40;17.00;;;;;;;;;;5073754;28;20700;-59
2021/06/06 03:02:37;;;;;;;22.33;17.40;;;;;;;;;;5074557;28;20483;-57
2021/06/06 03:05:05;;;;;;;32.77;17.40;;;;;;;;;;5075155;28;20493;-52
2021/06/06 03:07:35;;;;;;;24.97;17.73;;;;;;;;;;5077329;28;20544;-55
2021/06/06 03:10:05;;;;;;;23.87;16.43;;;;;;;;;;5076592;28;20496;-59
2021/06/06 03:12:32;;;;;;;21.90;16.50;;;;;;;;;;5076911;28;20464;-55
2021/06/06 03:15:01;;;;;;;21.17;15.73;;;;;;;;;;5076220;28;20648;-56
2021/06/06 03:17:32;;;;;;;23.47;16.83;;;;;;;;;;5076297;28;20465;-54
2021/06/06 03:20:01;;;;;;;27.23;19.17;;;;;;;;;;5076655;28;20515;-58
2021/06/06 03:22:42;;;;;;;27.13;15.60;;;;;;;;;;5076370;28;20467;-56
2021/06/06 03:25:11;;;;;;;22.73;17.80;;;;;;;;;;5075833;28;20523;-57
2021/06/06 03:27:40;;;;;;;21.13;16.90;;;;;;;;;;5075758;28;20468;-57
2021/06/06 03:30:28;;;;;;;23.13;16.70;;;;;;;;;;5076237;28;20464;-60
2021/06/06 03:32:55;;;;;;;20.40;15.70;;;;;;;;;;5074219;28;20548;-55
2021/06/06 03:35:22;;;;;;;22.87;17.60;;;;;;;;;;5076167;28;20533;-57
2021/06/06 03:37:49;;;;;;;21.23;16.13;;;;;;;;;;5075996;28;20476;-59
2021/06/06 03:40:17;;;;;;;26.60;18.83;;;;;;;;;;5076260;28;20544;-58
2021/06/06 03:42:48;;;;;;;25.70;19.17;;;;;;;;;;5076598;28;20417;-57
2021/06/06 03:45:15;;;;;;;22.13;18.17;;;;;;;;;;5076340;28;20486;-57
2021/06/06 03:47:43;;;;;;;21.80;16.87;;;;;;;;;;5075691;28;20543;-53
2021/06/06 03:50:14;;;;;;;27.33;18.60;;;;;;;;;;5075358;28;20485;-57
2021/06/06 03:52:51;;;;;;;23.07;18.20;;;;;;;;;;5075240;28;20474;-57
2021/06/06 03:55:27;;;;;;;23.07;17.77;;;;;;;;;;5076225;28;20445;-56
2021/06/06 03:57:57;;;;;;;26.73;19.50;;;;;;;;;;5075990;28;20461;-56
2021/06/06 04:00:26;;;;;;;24.17;18.77;;;;;;;;;;5075967;28;20538;-55
2021/06/06 04:03:04;;;;;;;29.90;19.53;;;;;;;;;;5076725;28;20445;-54
2021/06/06 04:05:31;;;;;;;26.50;19.20;;;;;;;;;;5074689;28;20524;-59
2021/06/06 04:07:58;;;;;;;21.27;17.30;;;;;;;;;;5073655;28;20492;-54
2021/06/06 04:10:31;;;;;;;25.53;19.13;;;;;;;;;;5073732;28;20503;-59
2021/06/06 04:12:58;;;;;;;23.87;19.30;;;;;;;;;;5074869;28;20476;-55
2021/06/06 04:15:26;;;;;;;27.30;19.87;;;;;;;;;;5076121;28;20456;-61
2021/06/06 04:17:53;;;;;;;26.20;18.47;;;;;;;;;;5067642;28;20473;-58
2021/06/06 04:20:22;;;;;;;27.97;20.70;;;;;;;;;;5054716;28;20497;-61
2021/06/06 04:22:49;;;;;;;27.80;21.00;;;;;;;;;;5063800;28;20515;-58
2021/06/06 04:25:23;;;;;;;28.90;21.10;;;;;;;;;;5055845;28;20477;-60
2021/06/06 04:27:50;;;;;;;28.73;19.80;;;;;;;;;;5058611;28;20454;-55
2021/06/06 04:30:17;;;;;;;27.57;19.30;;;;;;;;;;5076195;28;20441;-54
2021/06/06 04:32:45;;;;;;;22.63;17.20;;;;;;;;;;5065078;28;20481;-58
2021/06/06 04:35:12;;;;;;;26.67;18.70;;;;;;;;;;5055157;28;20473;-59
2021/06/06 04:37:40;;;;;;;25.57;17.70;;;;;;;;;;5055459;28;20457;-58
2021/06/06 04:40:09;;;;;;;24.40;17.57;;;;;;;;;;5055683;28;20469;-59
2021/06/06 04:42:42;;;;;;;25.63;18.67;;;;;;;;;;5064783;28;20477;-56
2021/06/06 04:45:10;;;;;;;25.73;18.30;;;;;;;;;;5068578;28;20713;-60
2021/06/06 04:47:37;;;;;;;23.50;17.30;;;;;;;;;;5062371;28;20433;-54
2021/06/06 04:50:05;;;;;;;24.27;18.30;;;;;;;;;;5075475;28;20452;-53
2021/06/06 04:52:36;;;;;;;22.10;17.80;;;;;;;;;;5076167;28;20440;-54
2021/06/06 04:55:06;;;;;;;31.20;18.10;;;;;;;;;;5075528;28;20422;-55
2021/06/06 04:57:35;;;;;;;33.10;20.67;;;;;;;;;;5056243;28;20426;-54
2021/06/06 05:00:02;;;;;;;23.40;16.53;;;;;;;;;;5056254;28;20469;-59
2021/06/06 05:02:29;;;;;;;23.67;17.60;;;;;;;;;;5055956;28;20457;-60
2021/06/06 05:04:56;;;;;;;23.27;16.10;;;;;;;;;;5055141;28;20462;-54
2021/06/06 05:07:23;;;;;;;25.57;17.37;;;;;;;;;;5055090;28;20449;-59
2021/06/06 05:09:54;;;;;;;27.07;18.77;;;;;;;;;;5062736;28;20555;-57
2021/06/06 05:12:22;;;;;;;20.60;16.67;;;;;;;;;;5075413;28;20457;-52
2021/06/06 05:14:49;;;;;;;24.37;17.00;;;;;;;;;;5075093;28;20453;-53
2021/06/06 05:17:16;;;;;;;19.87;15.80;;;;;;;;;;5075369;28;20453;-57
2021/06/06 05:19:43;;;;;;;21.30;16.63;;;;;;;;;;5079142;28;20465;-59
2021/06/06 05:22:21;;;;;;;25.43;17.97;;;;;;;;;;5079529;28;20471;-60
2021/06/06 05:24:48;;;;;;;25.23;16.50;;;;;;;;;;5058550;28;20505;-57
2021/06/06 05:27:15;;;;;;;23.70;17.30;;;;;;;;;;5059566;28;20418;-58
2021/06/06 05:29:45;;;;;;;19.33;16.63;;;;;;;;;;5058916;28;20477;-55
2021/06/06 05:32:12;;;;;;;21.80;17.07;;;;;;;;;;5073380;28;20536;-56
2021/06/06 05:34:39;;;;;;;21.70;16.50;;;;;;;;;;5079048;28;20461;-58
2021/06/06 05:37:08;;;;;;;21.90;17.77;;;;;;;;;;5076578;28;20441;-57
2021/06/06 05:39:50;;;;;;;23.10;15.43;;;;;;;;;;5078478;28;20445;-59
2021/06/06 05:42:17;;;;;;;21.40;16.70;;;;;;;;;;5078877;28;20504;-56
2021/06/06 05:44:46;;;;;;;19.40;16.03;;;;;;;;;;5079223;28;20469;-51
2021/06/06 05:47:13;;;;;;;24.17;18.87;;;;;;;;;;5078012;28;20460;-57
2021/06/06 05:49:40;;;;;;;20.80;17.20;;;;;;;;;;5078531;28;20457;-53
2021/06/06 05:52:07;;;;;;;22.27;17.07;;;;;;;;;;5073738;28;20469;-55
2021/06/06 05:54:37;;;;;;;24.50;17.20;;;;;;;;;;5072808;28;20464;-58
2021/06/06 05:57:05;;;;;;;21.50;17.10;;;;;;;;;;5070044;28;20485;-59
2021/06/06 05:59:32;;;;;;;24.83;18.20;;;;;;;;;;5058251;28;20469;-58
2021/06/06 06:02:01;;;;;;;24.80;18.10;;;;;;;;;;5058518;28;20461;-55
2021/06/06 06:04:49;;;;;;;24.77;19.90;;;;;;;;;;5058109;28;20534;-53
2021/06/06 06:07:16;;;;;;;26.97;20.37;;;;;;;;;;5068776;28;20487;-54
2021/06/06 06:09:43;;;;;;;26.70;20.97;;;;;;;;;;5077690;28;20495;-59
2021/06/06 06:12:16;;;;;;;43.90;23.07;;;;;;;;;;5077164;28;20465;-61
2021/06/06 06:14:43;;;;;;;30.13;21.87;;;;;;;;;;5077368;28;20464;-57
2021/06/06 06:17:14;;;;;;;30.53;19.20;;;;;;;;;;5077011;28;20438;-58
2021/06/06 06:19:54;;;;;;;30.90;20.67;;;;;;;;;;5077147;28;20465;-58
2021/06/06 06:22:21;;;;;;;26.13;20.57;;;;;;;;;;5077567;28;20503;-60
2021/06/06 06:24:48;;;;;;;24.90;19.10;;;;;;;;;;5077228;28;20449;-60
2021/06/06 06:27:20;;;;;;;26.47;19.83;;;;;;;;;;5077762;28;20521;-58
2021/06/06 06:29:47;;;;;;;21.73;16.80;;;;;;;;;;5077273;28;20456;-60
2021/06/06 06:32:16;;;;;;;25.40;18.57;;;;;;;;;;5077455;28;20429;-57
2021/06/06 06:35:20;;;;;;;23.53;17.67;;;;;;;;;;5077022;28;20485;-52
2021/06/06 06:37:47;;;;;;;25.67;19.67;;;;;;;;;;5077007;28;20469;-54
2021/06/06 06:40:15;;;;;;;25.37;18.93;;;;;;;;;;5077561;28;20552;-59
2021/06/06 06:42:43;;;;;;;26.33;18.93;;;;;;;;;;5076686;28;20461;-55
2021/06/06 06:45:11;;;;;;;28.03;21.53;;;;;;;;;;5076231;28;20471;-59
2021/06/06 06:47:43;;;;;;;28.97;20.50;;;;;;;;;;5076057;28;20530;-54
2021/06/06 06:50:21;;;;;;;26.73;21.47;;;;;;;;;;5076727;28;20464;-58
2021/06/06 06:52:47;;;;;;;31.80;21.70;;;;;;;;;;5075952;28;20465;-57
2021/06/06 06:55:15;;;;;;;28.50;21.07;;;;;;;;;;5075772;28;20494;-56
2021/06/06 06:57:55;;;;;;;27.13;20.50;;;;;;;;;;5064178;28;20506;-59
2021/06/06 07:00:24;;;;;;;26.90;20.23;;;;;;;;;;5059692;28;20543;-54
2021/06/06 07:02:55;;;;;;;28.40;21.00;;;;;;;;;;5069925;28;20456;-61
2021/06/06 07:05:28;;;;;;;27.00;20.43;;;;;;;;;;5061783;28;20469;-58
2021/06/06 07:07:55;;;;;;;32.33;20.40;;;;;;;;;;5056320;28;20453;-56
2021/06/06 07:10:23;;;;;;;29.73;22.70;;;;;;;;;;5056693;28;20441;-55
2021/06/06 07:12:53;;;;;;;27.60;20.43;;;;;;;;;;5058089;28;20446;-55
2021/06/06 07:15:20;;;;;;;34.03;21.03;;;;;;;;;;5056385;28;20454;-57
2021/06/06 07:17:47;;;;;;;29.47;22.67;;;;;;;;;;5056743;28;20462;-55
2021/06/06 07:20:18;;;;;;;32.40;21.70;;;;;;;;;;5073202;28;20504;-56
2021/06/06 07:22:45;;;;;;;30.93;22.90;;;;;;;;;;5075319;28;20457;-53
2021/06/06 07:25:25;;;;;;;34.33;21.60;;;;;;;;;;5056649;28;20419;-59
2021/06/06 07:27:54;;;;;;;26.37;20.13;;;;;;;;;;5069203;28;20461;-55
2021/06/06 07:30:23;;;;;;;39.60;24.40;;;;;;;;;;5072909;28;20457;-59
2021/06/06 07:32:51;;;;;;;36.03;23.37;;;;;;;;;;5069546;28;20472;-59
2021/06/06 07:35:21;;;;;;;38.90;24.90;;;;;;;;;;5067676;28;20493;-57
2021/06/06 07:37:54;;;;;;;31.70;23.17;;;;;;;;;;5055543;28;20533;-56
2021/06/06 07:40:22;;;;;;;34.27;23.93;;;;;;;;;;5068263;28;20562;-55
2021/06/06 07:42:49;;;;;;;34.30;25.00;;;;;;;;;;5055552;28;20462;-55
2021/06/06 07:45:16;;;;;;;37.30;27.10;;;;;;;;;;5055797;28;20470;-53
2021/06/06 07:47:44;;;;;;;30.63;23.70;;;;;;;;;;5060137;28;20610;-59
2021/06/06 07:50:12;;;;;;;32.87;25.60;;;;;;;;;;5075815;28;20441;-55
2021/06/06 07:52:42;;;;;;;36.33;25.87;;;;;;;;;;5075718;28;20437;-61
2021/06/06 07:55:12;;;;;;;36.47;25.30;;;;;;;;;;5073364;28;20455;-61
2021/06/06 07:57:39;;;;;;;41.23;27.60;;;;;;;;;;5075327;28;20445;-55
2021/06/06 08:00:08;;;;;;;35.73;24.60;;;;;;;;;;5056132;28;20482;-55
2021/06/06 08:02:37;;;;;;;46.63;28.97;;;;;;;;;;5055464;28;20468;-57
2021/06/06 08:05:06;;;;;;;43.17;30.50;;;;;;;;;;5056080;28;20525;-59
2021/06/06 08:07:33;;;;;;;45.97;32.07;;;;;;;;;;5055707;28;20434;-57
2021/06/06 08:10:12;;;;;;;46.13;30.67;;;;;;;;;;5064351;28;20446;-57
2021/06/06 08:12:43;;;;;;;38.20;28.13;;;;;;;;;;5050332;28;20453;-59
2021/06/06 08:15:12;;;;;;;43.30;29.70;;;;;;;;;;5056088;28;20457;-57
2021/06/06 08:17:53;;;;;;;42.27;30.33;;;;;;;;;;5063799;28;20457;-55
2021/06/06 08:20:25;;;;;;;46.73;31.07;;;;;;;;;;5073933;28;20711;-59
2021/06/06 08:22:54;;;;;;;46.13;30.57;;;;;;;;;;5062571;28;20435;-52
2021/06/06 08:25:39;;;;;;;50.00;33.60;;;;;;;;;;5061621;28;20457;-55
2021/06/06 08:28:09;;;;;;;55.87;34.03;;;;;;;;;;5055271;28;20453;-59
2021/06/06 08:30:38;;;;;;;49.73;34.20;;;;;;;;;;5055100;28;20434;-58
2021/06/06 08:33:12;;;;;;;52.53;32.87;;;;;;;;;;5054654;28;20466;-56
2021/06/06 08:35:41;;;;;;;52.47;33.37;;;;;;;;;;5059102;28;20436;-54
2021/06/06 08:38:10;;;;;;;48.20;32.00;;;;;;;;;;5074143;28;20452;-60
2021/06/06 08:40:53;;;;;;;48.10;32.53;;;;;;;;;;5073891;28;20540;-60
2021/06/06 08:43:21;;;;;;;52.50;32.57;;;;;;;;;;5072414;28;20480;-58
2021/06/06 08:45:50;;;;;;;45.60;29.83;;;;;;;;;;5074177;28;20456;-56
2021/06/06 08:48:18;;;;;;;49.20;30.47;;;;;;;;;;5074269;28;20453;-59
2021/06/06 08:50:49;;;;;;;41.97;30.63;;;;;;;;;;5073370;28;20488;-57
2021/06/06 08:53:19;;;;;;;42.67;29.80;;;;;;;;;;5075157;28;20456;-57
2021/06/06 08:55:58;;;;;;;43.90;30.00;;;;;;;;;;5068913;28;20456;-59
2021/06/06 08:58:33;;;;;;;42.90;30.10;;;;;;;;;;5073852;28;20479;-56
2021/06/06 09:01:02;;;;;;;44.70;29.80;;;;;;;;;;5066524;28;20491;-56
2021/06/06 09:03:31;;;;;;;42.30;29.33;;;;;;;;;;5058023;28;20469;-55
2021/06/06 09:06:02;;;;;;;44.73;30.87;;;;;;;;;;5059559;28;20441;-57
2021/06/06 09:08:31;;;;;;;46.97;29.33;;;;;;;;;;5078886;28;20448;-54
2021/06/06 09:11:02;;;;;;;58.17;32.53;;;;;;;;;;5059533;28;20449;-57
2021/06/06 09:13:31;;;;;;;44.53;28.97;;;;;;;;;;5058304;28;20464;-58
2021/06/06 09:16:04;;;;;;;43.90;30.50;;;;;;;;;;5060730;28;20476;-54
2021/06/06 09:18:30;;;;;;;46.60;28.30;;;;;;;;;;5062432;28;20692;-57
2021/06/06 09:21:09;;;;;;;44.80;26.97;;;;;;;;;;5057674;28;20517;-57
2021/06/06 09:23:40;;;;;;;46.53;31.63;;;;;;;;;;5069055;28;20432;-53
2021/06/06 09:26:10;;;;;;;45.77;29.40;;;;;;;;;;5075336;28;20607;-53
2021/06/06 09:28:37;;;;;;;48.43;30.67;;;;;;;;;;5066293;28;20483;-58
2021/06/06 09:31:12;;;;;;;43.83;29.70;;;;;;;;;;5064892;28;20461;-54
2021/06/06 09:33:43;;;;;;;42.40;27.97;;;;;;;;;;5071721;28;20704;-58
2021/06/06 09:36:19;;;;;;;45.80;29.90;;;;;;;;;;5077690;28;20441;-61
2021/06/06 09:38:47;;;;;;;39.07;29.20;;;;;;;;;;5058696;28;20581;-57
2021/06/06 09:41:20;;;;;;;56.70;33.10;;;;;;;;;;5062374;28;20501;-56
2021/06/06 09:43:58;;;;;;;51.03;33.27;;;;;;;;;;5070753;28;20458;-60
2021/06/06 09:46:25;;;;;;;49.70;31.43;;;;;;;;;;5057452;28;20457;-59
2021/06/06 09:48:53;;;;;;;56.07;32.97;;;;;;;;;;5057063;28;20501;-57
2021/06/06 09:51:26;;;;;;;47.87;32.13;;;;;;;;;;5057737;28;20466;-55
2021/06/06 09:53:57;;;;;;;56.50;34.47;;;;;;;;;;5056794;28;20499;-58
2021/06/06 09:56:29;;;;;;;62.57;37.60;;;;;;;;;;5066268;28;20453;-55
2021/06/06 09:58:56;;;;;;;50.63;35.30;;;;;;;;;;5076160;28;20448;-52
2021/06/06 10:01:29;;;;;;;59.40;35.17;;;;;;;;;;5069378;28;20477;-58
2021/06/06 10:03:58;;;;;;;62.73;39.07;;;;;;;;;;5066009;28;20481;-55
2021/06/06 10:06:27;;;;;;;57.87;39.37;;;;;;;;;;5069880;28;20461;-57
2021/06/06 10:09:02;;;;;;;64.83;37.17;;;;;;;;;;5063739;28;20508;-49
2021/06/06 10:11:47;;;;;;;50.60;35.17;;;;;;;;;;5061492;28;20451;-59
2021/06/06 10:14:14;;;;;;;52.23;33.20;;;;;;;;;;5077897;28;20453;-56
2021/06/06 10:16:45;;;;;;;49.93;32.17;;;;;;;;;;5077134;28;20437;-55
2021/06/06 10:19:13;;;;;;;50.07;29.57;;;;;;;;;;5064158;28;20423;-59
2021/06/06 10:21:50;;;;;;;44.37;29.97;;;;;;;;;;5068148;28;20506;-53
2021/06/06 10:24:18;;;;;;;45.53;31.00;;;;;;;;;;5055889;28;20438;-54
2021/06/06 10:26:49;;;;;;;48.77;31.13;;;;;;;;;;5056434;28;20513;-55
2021/06/06 10:29:24;;;;;;;46.90;32.43;;;;;;;;;;5057037;28;20446;-56
2021/06/06 10:31:53;;;;;;;45.37;29.23;;;;;;;;;;5066243;28;20449;-57
2021/06/06 10:34:24;;;;;;;47.80;32.03;;;;;;;;;;5077040;28;20418;-55
2021/06/06 10:36:58;;;;;;;49.17;35.30;;;;;;;;;;5061996;28;20501;-57
2021/06/06 10:39:27;;;;;;;61.10;39.83;;;;;;;;;;5056640;28;20512;-58
2021/06/06 10:41:59;;;;;;;57.50;37.33;;;;;;;;;;5066080;28;20527;-54
2021/06/06 10:44:48;;;;;;;51.57;33.30;;;;;;;;;;5062822;28;20454;-55
2021/06/06 10:47:17;;;;;;;46.43;30.27;;;;;;;;;;5070438;28;20452;-59
2021/06/06 10:49:50;;;;;;;43.50;30.53;;;;;;;;;;5060276;28;20456;-52
2021/06/06 10:52:22;;;;;;;42.30;28.03;;;;;;;;;;5056820;28;20448;-58
2021/06/06 10:54:49;;;;;;;42.93;28.83;;;;;;;;;;5058120;28;20513;-52
2021/06/06 10:57:38;;;;;;;45.60;28.23;;;;;;;;;;5056226;28;20442;-59
2021/06/06 11:00:21;;;;;;;37.53;27.67;;;;;;;;;;5071586;28;20464;-57
2021/06/06 11:03:01;;;;;;;41.50;26.40;;;;;;;;;;5075685;28;20479;-55
2021/06/06 11:05:45;;;;;;;34.73;26.00;;;;;;;;;;5063960;28;20482;-55
2021/06/06 11:08:37;;;;;;;35.90;27.10;;;;;;;;;;5062148;28;20446;-57
2021/06/06 11:11:29;;;;;;;35.23;27.07;;;;;;;;;;5056027;28;20449;-58
2021/06/06 11:14:18;;;;;;;47.60;30.60;;;;;;;;;;5054737;28;20448;-58
2021/06/06 11:17:20;;;;;;;33.63;25.97;;;;;;;;;;5054797;28;20438;-53
2021/06/06 11:19:56;;;;;;;35.47;26.60;;;;;;;;;;5053410;28;20445;-55
2021/06/06 11:25:48;;;;;;;34.03;26.33;;;;;;;;;;5057766;28;20434;-52
2021/06/06 11:28:29;;;;;;;39.93;28.67;;;;;;;;;;5062461;28;20438;-55
2021/06/06 11:31:37;;;;;;;45.57;32.00;;;;;;;;;;5060446;28;20440;-61
2021/06/06 11:34:24;;;;;;;48.17;30.37;;;;;;;;;;5067969;28;20478;-55
2021/06/06 11:37:17;;;;;;;42.57;33.17;;;;;;;;;;5056393;28;20446;-59
2021/06/06 11:39:47;;;;;;;43.70;33.60;;;;;;;;;;5054700;28;20445;-58
2021/06/06 11:45:12;;;;;;;44.00;35.27;;;;;;;;;;5062614;28;20485;-62
2021/06/06 11:47:44;;;;;;;58.50;38.90;;;;;;;;;;5055319;28;20493;-57
2021/06/06 11:50:32;;;;;;;49.77;38.30;;;;;;;;;;5066676;28;20449;-54
2021/06/06 11:53:04;;;;;;;47.83;36.67;;;;;;;;;;5055759;28;20453;-53
2021/06/06 11:55:33;;;;;;;53.27;37.27;;;;;;;;;;5068882;28;20457;-56
2021/06/06 11:58:10;;;;;;;49.10;37.20;;;;;;;;;;5075634;28;20490;-53
2021/06/06 12:00:44;;;;;;;54.13;40.57;;;;;;;;;;5073757;28;20496;-52
2021/06/06 12:03:13;;;;;;;55.90;40.77;;;;;;;;;;5074559;28;20457;-55
2021/06/06 12:05:51;;;;;;;57.17;44.03;;;;;;;;;;5074965;28;20456;-58
2021/06/06 12:08:57;;;;;;;64.10;45.90;;;;;;;;;;5075690;28;20549;-57
2021/06/06 12:11:27;;;;;;;65.77;46.10;;;;;;;;;;5072627;28;20486;-57
2021/06/06 12:13:55;;;;;;;61.30;45.23;;;;;;;;;;5074505;28;20495;-63
2021/06/06 12:16:31;;;;;;;64.40;48.57;;;;;;;;;;5073757;28;20454;-55
2021/06/06 12:19:06;;;;;;;61.40;46.30;;;;;;;;;;5053692;28;20434;-53
2021/06/06 12:21:42;;;;;;;61.63;44.27;;;;;;;;;;5054354;28;20607;-56
2021/06/06 12:24:12;;;;;;;57.37;44.53;;;;;;;;;;5060001;28;20479;-61
2021/06/06 12:26:42;;;;;;;51.87;39.20;;;;;;;;;;5056447;28;20468;-59
2021/06/06 12:29:12;;;;;;;50.73;37.27;;;;;;;;;;5057690;28;20517;-57
2021/06/06 12:31:43;;;;;;;53.67;36.93;;;;;;;;;;5050902;28;20497;-57
2021/06/06 12:34:12;;;;;;;47.57;35.23;;;;;;;;;;5057693;28;20560;-57
2021/06/06 12:37:08;;;;;;;50.90;35.10;;;;;;;;;;5058518;28;20469;-56
2021/06/06 12:39:40;;;;;;;50.53;34.67;;;;;;;;;;5072007;28;20481;-61
2021/06/06 12:42:08;;;;;;;57.60;38.07;;;;;;;;;;5077453;28;20496;-60
2021/06/06 12:44:39;;;;;;;54.00;38.47;;;;;;;;;;5077932;28;20544;-56
2021/06/06 12:47:07;;;;;;;46.30;34.67;;;;;;;;;;5077162;28;20544;-55
2021/06/06 12:49:53;;;;;;;52.27;36.23;;;;;;;;;;5077907;28;20504;-54
2021/06/06 12:52:23;;;;;;;43.60;34.63;;;;;;;;;;5057419;28;20454;-60
2021/06/06 12:55:10;;;;;;;46.07;33.90;;;;;;;;;;5058335;28;20442;-61
2021/06/06 12:57:51;;;;;;;44.00;31.57;;;;;;;;;;5072916;28;20464;-56
2021/06/06 13:00:27;;;;;;;48.03;31.83;;;;;;;;;;5057973;28;20465;-52
2021/06/06 13:02:54;;;;;;;36.67;28.57;;;;;;;;;;5058233;28;20510;-57
2021/06/06 13:05:45;;;;;;;34.93;27.20;;;;;;;;;;5058588;28;20464;-59
2021/06/06 13:08:37;;;;;;;37.13;27.70;;;;;;;;;;5058585;28;20487;-55
2021/06/06 13:11:12;;;;;;;41.73;28.63;;;;;;;;;;5059049;28;20449;-58
2021/06/06 13:14:04;;;;;;;36.17;27.20;;;;;;;;;;5058678;28;20434;-58
2021/06/06 13:16:36;;;;;;;39.03;28.23;;;;;;;;;;5058992;28;20419;-60
2021/06/06 13:19:06;;;;;;;37.70;28.33;;;;;;;;;;5057521;28;20518;-58
2021/06/06 13:21:35;;;;;;;33.07;27.27;;;;;;;;;;5058165;28;20489;-55
2021/06/06 13:24:10;;;;;;;40.93;27.80;;;;;;;;;;5058140;28;20472;-53
2021/06/06 13:26:58;;;;;;;33.20;24.60;;;;;;;;;;5058062;28;20475;-54
2021/06/06 13:29:33;;;;;;;32.50;25.40;;;;;;;;;;5049332;28;20489;-54
2021/06/06 13:32:01;;;;;;;37.13;26.87;;;;;;;;;;5046023;28;20457;-55
2021/06/06 13:35:04;;;;;;;33.90;24.13;;;;;;;;;;5051603;28;20461;-55
2021/06/06 13:37:34;;;;;;;29.00;22.47;;;;;;;;;;5071599;28;20484;-57
2021/06/06 13:40:06;;;;;;;33.77;24.97;;;;;;;;;;5076813;28;20452;-52
2021/06/06 13:42:39;;;;;;;35.47;23.17;;;;;;;;;;5075781;28;20570;-53
2021/06/06 13:45:10;;;;;;;29.77;22.00;;;;;;;;;;5067169;28;20481;-58
2021/06/06 13:47:39;;;;;;;33.33;23.43;;;;;;;;;;5078472;28;20445;-57
2021/06/06 13:50:11;;;;;;;32.73;25.27;;;;;;;;;;5078078;28;20448;-55
2021/06/06 13:52:47;;;;;;;35.40;26.40;;;;;;;;;;5078048;28;20464;-58
2021/06/06 13:55:32;;;;;;;39.03;26.63;;;;;;;;;;5070024;28;20441;-59
2021/06/06 13:58:05;;;;;;;38.13;26.10;;;;;;;;;;5057173;28;20434;-60
2021/06/06 14:00:39;;;;;;;35.50;26.17;;;;;;;;;;5059159;28;20450;-56
2021/06/06 14:03:11;;;;;;;35.17;25.53;;;;;;;;;;5066998;28;20833;-57
2021/06/06 14:05:44;;;;;;;41.73;27.10;;;;;;;;;;5060306;28;20465;-56
2021/06/06 14:08:11;;;;;;;36.53;24.53;;;;;;;;;;5057582;28;20491;-57
2021/06/06 14:10:40;;;;;;;41.83;30.40;;;;;;;;;;5056787;28;20454;-60
2021/06/06 14:13:07;;;;;;;43.57;28.00;;;;;;;;;;5057317;28;20469;-60
2021/06/06 14:15:36;;;;;;;34.53;26.23;;;;;;;;;;5066341;28;20454;-58
2021/06/06 14:18:30;;;;;;;36.80;26.80;;;;;;;;;;5077392;28;20442;-56
2021/06/06 14:20:58;;;;;;;36.40;25.37;;;;;;;;;;5077027;28;20472;-56
2021/06/06 14:23:44;;;;;;;35.83;25.93;;;;;;;;;;5076487;28;20465;-57
2021/06/06 14:26:12;;;;;;;36.27;24.87;;;;;;;;;;5058454;28;20468;-59
2021/06/06 14:28:39;;;;;;;35.10;25.70;;;;;;;;;;5055629;28;20515;-58
2021/06/06 14:31:08;;;;;;;38.70;25.53;;;;;;;;;;5056647;28;20449;-57
2021/06/06 14:33:41;;;;;;;30.80;23.77;;;;;;;;;;5067450;28;20433;-60
2021/06/06 14:39:15;;;;;;;38.40;24.30;;;;;;;;;;5056012;28;20424;-55
2021/06/06 14:41:42;;;;;;;30.20;24.57;;;;;;;;;;5076744;28;20465;-60
2021/06/06 14:44:17;;;;;;;34.70;26.30;;;;;;;;;;5066537;28;20472;-56
2021/06/06 14:46:46;;;;;;;32.20;24.47;;;;;;;;;;5059296;28;20485;-53
2021/06/06 14:49:58;;;;;;;34.27;26.77;;;;;;;;;;5061431;28;20501;-59
2021/06/06 14:55:28;;;;;;;35.90;24.30;;;;;;;;;;5064608;28;20650;-56